createdAt,value
2023-01-21T00:00:59.695Z,-1.50
2023-01-21T00:03:28.324Z,-1.50
2023-01-21T00:05:58.992Z,-1.50
2023-01-21T00:08:28.926Z,-1.60
2023-01-21T00:10:57.596Z,-1.60
2023-01-21T00:13:26.080Z,-1.60
2023-01-21T00:15:56.207Z,-1.60
2023-01-21T00:18:24.919Z,-1.60
2023-01-21T00:20:53.553Z,-1.50
2023-01-21T00:23:23.596Z,-1.50
2023-01-21T00:25:58.446Z,-1.40
2023-01-21T00:28:29.815Z,-1.40
2023-01-21T00:31:23.577Z,-1.50
2023-01-21T00:33:52.132Z,-1.60
2023-01-21T00:36:22.164Z,-1.60
2023-01-21T00:38:52.373Z,-1.70
2023-01-21T00:41:21.206Z,-1.60
2023-01-21T00:43:49.596Z,-1.60
2023-01-21T00:46:18.352Z,-1.60
2023-01-21T00:48:46.976Z,-1.60
2023-01-21T00:51:15.451Z,-1.60
2023-01-21T00:53:44.402Z,-1.60
2023-01-21T00:56:14.668Z,-1.70
2023-01-21T00:58:44.253Z,-1.80
2023-01-21T01:01:17.122Z,-1.70
2023-01-21T01:03:46.841Z,-1.80
2023-01-21T01:06:17.669Z,-1.80
2023-01-21T01:08:46.845Z,-1.80
2023-01-21T01:11:17.281Z,-1.80
2023-01-21T01:13:46.841Z,-1.80
2023-01-21T01:16:16.324Z,-1.80
2023-01-21T01:18:45.509Z,-1.80
2023-01-21T01:21:17.404Z,-1.90
2023-01-21T01:23:46.491Z,-1.90
2023-01-21T01:26:18.144Z,-1.90
2023-01-21T01:28:47.032Z,-1.80
2023-01-21T01:31:17.635Z,-1.80
2023-01-21T01:33:46.331Z,-1.80
2023-01-21T01:36:16.271Z,-1.80
2023-01-21T01:38:45.018Z,-1.80
2023-01-21T01:41:19.399Z,-1.90
2023-01-21T01:43:54.340Z,-1.80
2023-01-21T01:46:25.023Z,-1.80
2023-01-21T01:49:00.256Z,-1.80
2023-01-21T01:51:35.170Z,-1.80
2023-01-21T01:54:05.743Z,-1.80
2023-01-21T01:56:38.588Z,-1.80
2023-01-21T01:59:07.635Z,-1.80
2023-01-21T02:01:36.199Z,-1.80
2023-01-21T02:04:07.578Z,-1.80
2023-01-21T02:06:36.883Z,-1.80
2023-01-21T02:09:05.357Z,-1.80
2023-01-21T02:11:36.216Z,-1.80
2023-01-21T02:14:05.355Z,-1.80
2023-01-21T02:17:07.936Z,-1.70
2023-01-21T02:20:22.503Z,-1.70
2023-01-21T02:22:58.583Z,-1.70
2023-01-21T02:25:51.965Z,-1.70
2023-01-21T02:29:03.890Z,-1.70
2023-01-21T02:32:04.951Z,-1.70
2023-01-21T02:34:42.842Z,-1.70
2023-01-21T02:37:14.616Z,-1.70
2023-01-21T02:39:58.739Z,-1.70
2023-01-21T02:42:33.904Z,-1.60
2023-01-21T02:45:10.248Z,-1.70
2023-01-21T02:47:45.235Z,-1.70
2023-01-21T02:50:20.048Z,-1.70
2023-01-21T02:52:56.572Z,-1.70
2023-01-21T02:55:30.896Z,-1.70
2023-01-21T02:58:01.942Z,-1.60
2023-01-21T03:00:43.363Z,-1.70
2023-01-21T03:03:37.682Z,-1.70
2023-01-21T03:06:39.135Z,-1.70
2023-01-21T03:09:19.560Z,-1.80
2023-01-21T03:11:57.449Z,-1.80
2023-01-21T03:14:48.394Z,-1.80
2023-01-21T03:17:23.412Z,-1.70
2023-01-21T03:19:58.988Z,-1.70
2023-01-21T03:22:34.835Z,-1.70
2023-01-21T03:25:04.233Z,-1.80
2023-01-21T03:27:34.218Z,-1.80
2023-01-21T03:30:06.818Z,-1.80
2023-01-21T03:32:36.843Z,-1.80
2023-01-21T03:35:08.641Z,-1.80
2023-01-21T03:37:42.685Z,-1.70
2023-01-21T03:40:22.622Z,-1.70
2023-01-21T03:42:52.716Z,-1.80
2023-01-21T03:45:37.510Z,-1.70
2023-01-21T03:48:14.766Z,-1.70
2023-01-21T03:50:48.541Z,-1.70
2023-01-21T03:53:18.908Z,-1.70
2023-01-21T03:55:47.551Z,-1.70
2023-01-21T03:58:15.998Z,-1.70
2023-01-21T04:00:45.079Z,-1.70
2023-01-21T04:03:13.921Z,-1.70
2023-01-21T04:05:42.341Z,-1.60
2023-01-21T04:08:10.912Z,-1.70
2023-01-21T04:10:40.741Z,-1.60
2023-01-21T04:13:09.533Z,-1.60
2023-01-21T04:15:38.024Z,-1.60
2023-01-21T04:18:06.499Z,-1.70
2023-01-21T04:20:34.985Z,-1.70
2023-01-21T04:23:03.369Z,-1.70
2023-01-21T04:25:32.029Z,-1.70
2023-01-21T04:28:02.252Z,-1.70
2023-01-21T04:30:30.822Z,-1.70
2023-01-21T04:32:59.678Z,-1.70
2023-01-21T04:35:28.498Z,-1.70
2023-01-21T04:37:56.884Z,-1.70
2023-01-21T04:40:25.374Z,-1.70
2023-01-21T04:42:54.163Z,-1.70
2023-01-21T04:45:24.491Z,-1.70
2023-01-21T04:47:52.956Z,-1.60
2023-01-21T04:50:21.422Z,-1.60
2023-01-21T04:52:49.907Z,-1.60
2023-01-21T04:55:18.835Z,-1.60
2023-01-21T04:57:47.259Z,-1.70
2023-01-21T05:00:17.274Z,-1.60
2023-01-21T05:02:47.379Z,-1.60
2023-01-21T05:05:16.283Z,-1.60
2023-01-21T05:07:45.097Z,-1.60
2023-01-21T05:10:18.050Z,-1.60
2023-01-21T05:12:46.648Z,-1.60
2023-01-21T05:15:15.025Z,-1.60
2023-01-21T05:17:43.948Z,-1.60
2023-01-21T05:20:14.398Z,-1.70
2023-01-21T05:22:42.961Z,-1.60
2023-01-21T05:25:11.916Z,-1.60
2023-01-21T05:27:40.309Z,-1.60
2023-01-21T05:30:10.247Z,-1.60
2023-01-21T05:32:40.052Z,-1.60
2023-01-21T05:35:09.421Z,-1.60
2023-01-21T05:37:39.192Z,-1.60
2023-01-21T05:40:08.827Z,-1.60
2023-01-21T05:42:37.257Z,-1.60
2023-01-21T05:45:06.688Z,-1.60
2023-01-21T05:47:35.437Z,-1.60
2023-01-21T05:50:04.060Z,-1.60
2023-01-21T05:52:32.558Z,-1.60
2023-01-21T05:55:03.127Z,-1.50
2023-01-21T05:57:32.449Z,-1.50
2023-01-21T06:00:01.105Z,-1.50
2023-01-21T06:02:29.635Z,-1.50
2023-01-21T06:04:58.063Z,-1.50
2023-01-21T06:07:26.417Z,-1.50
2023-01-21T06:09:55.215Z,-1.50
2023-01-21T06:12:26.147Z,-1.50
2023-01-21T06:14:54.727Z,-1.50
2023-01-21T06:17:32.526Z,-1.50
2023-01-21T06:20:01.066Z,-1.50
2023-01-21T06:22:29.982Z,-1.50
2023-01-21T06:24:58.825Z,-1.50
2023-01-21T06:27:28.589Z,-1.40
2023-01-21T06:29:56.968Z,-1.50
2023-01-21T06:32:25.337Z,-1.60
2023-01-21T06:34:53.811Z,-1.60
2023-01-21T06:37:22.558Z,-1.60
2023-01-21T06:39:51.224Z,-1.60
2023-01-21T06:42:19.749Z,-1.60
2023-01-21T06:44:49.598Z,-1.60
2023-01-21T06:47:18.142Z,-1.60
2023-01-21T06:49:46.546Z,-1.60
2023-01-21T06:52:15.027Z,-1.60
2023-01-21T06:54:44.417Z,-1.70
2023-01-21T06:57:13.848Z,-1.70
2023-01-21T06:59:42.449Z,-1.60
2023-01-21T07:02:13.610Z,-1.60
2023-01-21T07:04:42.474Z,-1.60
2023-01-21T07:07:10.849Z,-1.60
2023-01-21T07:09:39.231Z,-1.70
2023-01-21T07:12:08.081Z,-1.60
2023-01-21T07:14:36.448Z,-1.70
2023-01-21T07:17:04.975Z,-1.70
2023-01-21T07:19:35.111Z,-1.70
2023-01-21T07:22:03.603Z,-1.70
2023-01-21T07:24:32.376Z,-1.70
2023-01-21T07:27:00.865Z,-1.60
2023-01-21T07:29:29.613Z,-1.60
2023-01-21T07:31:58.103Z,-1.60
2023-01-21T07:34:26.715Z,-1.60
2023-01-21T07:36:56.555Z,-1.60
2023-01-21T07:39:25.235Z,-1.50
2023-01-21T07:41:54.675Z,-1.60
2023-01-21T07:44:23.506Z,-1.60
2023-01-21T07:46:52.409Z,-1.60
2023-01-21T07:49:21.213Z,-1.50
2023-01-21T07:51:50.135Z,-1.50
2023-01-21T07:54:20.123Z,-1.50
2023-01-21T07:56:48.583Z,-1.50
2023-01-21T07:59:17.272Z,-1.50
2023-01-21T08:01:45.786Z,-1.50
2023-01-21T08:04:14.624Z,-1.50
2023-01-21T08:06:43.144Z,-1.50
2023-01-21T08:09:11.904Z,-1.50
2023-01-21T08:11:44.422Z,-1.50
2023-01-21T08:14:12.783Z,-1.50
2023-01-21T08:16:42.556Z,-1.50
2023-01-21T08:19:13.727Z,-1.40
2023-01-21T08:21:42.233Z,-1.40
2023-01-21T08:24:11.358Z,-1.50
2023-01-21T08:26:41.182Z,-1.50
2023-01-21T08:29:09.831Z,-1.50
2023-01-21T08:31:38.545Z,-1.40
2023-01-21T08:34:07.316Z,-1.40
2023-01-21T08:36:38.491Z,-1.40
2023-01-21T08:39:06.928Z,-1.40
2023-01-21T08:41:35.467Z,-1.30
2023-01-21T08:44:05.354Z,-1.30
2023-01-21T08:46:34.380Z,-1.30
2023-01-21T08:49:03.166Z,-1.20
2023-01-21T08:51:31.627Z,-1.20
2023-01-21T08:54:00.114Z,-1.20
2023-01-21T08:56:28.613Z,-1.10
2023-01-21T08:58:57.437Z,-1.10
2023-01-21T09:01:27.773Z,-1.10
2023-01-21T09:03:56.907Z,-1.10
2023-01-21T09:06:26.515Z,-1.00
2023-01-21T09:08:55.563Z,-1.00
2023-01-21T09:11:24.679Z,-1.00
2023-01-21T09:13:53.188Z,-1.00
2023-01-21T09:16:24.029Z,-1.00
2023-01-21T09:18:53.902Z,-0.90
2023-01-21T09:21:22.313Z,-1.00
2023-01-21T09:23:50.711Z,-0.90
2023-01-21T09:26:21.318Z,-0.80
2023-01-21T09:28:54.269Z,-0.80
2023-01-21T09:31:24.121Z,-0.80
2023-01-21T09:33:55.807Z,-0.80
2023-01-21T09:36:26.558Z,-0.80
2023-01-21T09:38:55.685Z,-0.80
2023-01-21T09:41:27.570Z,-0.80
2023-01-21T09:44:04.548Z,-0.80
2023-01-21T09:46:42.464Z,-0.70
2023-01-21T09:49:16.319Z,-0.60
2023-01-21T09:51:52.543Z,-0.70
2023-01-21T09:54:27.811Z,-0.70
2023-01-21T09:57:20.976Z,-0.50
2023-01-21T10:00:01.358Z,-0.60
2023-01-21T10:02:38.585Z,-0.60
2023-01-21T10:05:28.164Z,-0.50
2023-01-21T10:08:00.345Z,-0.50
2023-01-21T10:10:39.703Z,-0.40
2023-01-21T10:13:27.245Z,-0.40
2023-01-21T10:16:04.530Z,-0.30
2023-01-21T10:18:36.076Z,-0.50
2023-01-21T10:21:11.560Z,-0.40
2023-01-21T10:23:45.027Z,-0.30
2023-01-21T10:26:15.666Z,-0.30
2023-01-21T10:28:49.788Z,-0.30
2023-01-21T10:31:23.499Z,-0.30
2023-01-21T10:33:52.577Z,-0.30
2023-01-21T10:36:45.354Z,-0.30
2023-01-21T10:39:27.981Z,-0.30
2023-01-21T10:42:22.579Z,-0.40
2023-01-21T10:44:58.753Z,-0.40
2023-01-21T10:47:34.052Z,-0.30
2023-01-21T10:50:12.640Z,-0.30
2023-01-21T10:52:47.599Z,-0.30
2023-01-21T10:55:28.053Z,-0.30
2023-01-21T10:57:59.981Z,-0.20
2023-01-21T11:00:32.725Z,-0.10
2023-01-21T11:03:05.119Z,-0.20
2023-01-21T11:05:34.438Z,-0.30
2023-01-21T11:08:05.057Z,-0.20
2023-01-21T11:10:34.163Z,-0.20
2023-01-21T11:13:02.554Z,-0.30
2023-01-21T11:15:34.504Z,-0.30
2023-01-21T11:18:23.923Z,-0.20
2023-01-21T11:20:53.028Z,-0.10
2023-01-21T11:23:30.069Z,-0.20
2023-01-21T11:26:03.618Z,-0.10
2023-01-21T11:28:33.112Z,-0.10
2023-01-21T11:31:15.059Z,-0.10
2023-01-21T11:33:44.446Z,-0.20
2023-01-21T11:36:17.614Z,-0.20
2023-01-21T11:38:50.532Z,-0.30
2023-01-21T11:41:23.317Z,-0.20
2023-01-21T11:43:55.151Z,-0.10
2023-01-21T11:46:37.244Z,-0.20
2023-01-21T11:49:22.723Z,-0.10
2023-01-21T11:51:51.429Z,0.00
2023-01-21T11:54:24.035Z,-0.10
2023-01-21T11:56:58.073Z,0.00
2023-01-21T11:59:32.969Z,0.00
2023-01-21T12:02:11.283Z,0.00
2023-01-21T12:04:44.623Z,-0.10
2023-01-21T12:07:20.753Z,0.00
2023-01-21T12:09:55.688Z,0.00
2023-01-21T12:12:38.665Z,0.10
2023-01-21T12:15:21.638Z,0.00
2023-01-21T12:18:00.009Z,0.10
2023-01-21T12:20:34.283Z,0.20
2023-01-21T12:23:23.520Z,0.20
2023-01-21T12:25:59.654Z,0.20
2023-01-21T12:28:47.165Z,0.20
2023-01-21T12:31:26.721Z,0.30
2023-01-21T12:34:01.477Z,0.50
2023-01-21T12:36:35.329Z,0.40
2023-01-21T12:39:21.928Z,0.40
2023-01-21T12:42:00.316Z,0.40
2023-01-21T12:44:35.923Z,0.30
2023-01-21T12:47:11.582Z,0.30
2023-01-21T12:50:08.040Z,0.30
2023-01-21T12:52:45.352Z,0.30
2023-01-21T12:55:20.996Z,0.40
2023-01-21T12:57:57.582Z,0.30
2023-01-21T13:00:30.200Z,0.20
2023-01-21T13:03:11.444Z,0.30
2023-01-21T13:05:48.638Z,0.20
2023-01-21T13:08:39.754Z,0.20
2023-01-21T13:11:19.376Z,0.30
2023-01-21T13:13:52.463Z,0.30
2023-01-21T13:16:23.073Z,0.30
2023-01-21T13:18:54.464Z,0.30
2023-01-21T13:21:31.965Z,0.30
2023-01-21T13:24:12.361Z,0.30
2023-01-21T13:26:47.963Z,0.40
2023-01-21T13:29:26.467Z,0.30
2023-01-21T13:32:13.368Z,0.30
2023-01-21T13:34:50.423Z,0.20
2023-01-21T13:37:29.397Z,0.20
2023-01-21T13:40:19.816Z,0.30
2023-01-21T13:42:56.486Z,0.40
2023-01-21T13:45:38.523Z,0.40
2023-01-21T13:48:24.805Z,0.40
2023-01-21T13:51:02.934Z,0.40
2023-01-21T13:53:43.195Z,0.40
2023-01-21T13:56:29.623Z,0.50
2023-01-21T13:59:01.480Z,0.40
2023-01-21T14:01:38.915Z,0.50
2023-01-21T14:04:14.451Z,0.40
2023-01-21T14:06:49.921Z,0.40
2023-01-21T14:09:25.631Z,0.40
2023-01-21T14:11:58.376Z,0.40
2023-01-21T14:14:56.903Z,0.40
2023-01-21T14:17:45.562Z,0.30
2023-01-21T14:20:36.818Z,0.40
2023-01-21T14:23:29.809Z,0.40
2023-01-21T14:26:11.931Z,0.40
2023-01-21T14:28:47.980Z,0.40
2023-01-21T14:31:22.597Z,0.40
2023-01-21T14:33:58.597Z,0.40
2023-01-21T14:36:36.201Z,0.40
2023-01-21T14:39:13.896Z,0.40
2023-01-21T14:41:56.107Z,0.40
2023-01-21T14:44:39.967Z,0.50
2023-01-21T14:47:23.177Z,0.50
2023-01-21T14:49:54.851Z,0.40
2023-01-21T14:52:30.952Z,0.40
2023-01-21T14:55:00.395Z,0.50
2023-01-21T14:57:32.999Z,0.40
2023-01-21T15:00:14.135Z,0.40
2023-01-21T15:02:45.445Z,0.40
2023-01-21T15:05:23.208Z,0.40
2023-01-21T15:08:03.143Z,0.40
2023-01-21T15:10:34.955Z,0.40
2023-01-21T15:13:07.506Z,0.40
2023-01-21T15:15:40.635Z,0.40
2023-01-21T15:18:27.344Z,0.40
2023-01-21T15:20:58.603Z,0.40
2023-01-21T15:23:38.340Z,0.40
2023-01-21T15:26:20.909Z,0.40
2023-01-21T15:28:52.032Z,0.40
2023-01-21T15:31:44.287Z,0.40
2023-01-21T15:34:18.750Z,0.40
2023-01-21T15:36:57.038Z,0.40
2023-01-21T15:39:32.017Z,0.40
2023-01-21T15:42:14.174Z,0.40
2023-01-21T15:45:23.576Z,0.40
2023-01-21T15:48:10.635Z,0.40
2023-01-21T15:50:45.039Z,0.40
2023-01-21T15:53:49.185Z,0.40
2023-01-21T15:56:42.679Z,0.40
2023-01-21T15:59:26.267Z,0.40
2023-01-21T16:02:15.699Z,0.40
2023-01-21T16:04:55.085Z,0.40
2023-01-21T16:07:37.025Z,0.40
2023-01-21T16:10:17.189Z,0.40
2023-01-21T16:12:54.684Z,0.40
2023-01-21T16:15:36.077Z,0.40
2023-01-21T16:18:16.378Z,0.40
2023-01-21T16:20:47.540Z,0.40
2023-01-21T16:23:18.275Z,0.40
2023-01-21T16:25:49.845Z,0.40
2023-01-21T16:28:19.288Z,0.40
2023-01-21T16:30:55.146Z,0.40
2023-01-21T16:33:24.094Z,0.40
2023-01-21T16:35:55.980Z,0.40
2023-01-21T16:38:27.082Z,0.40
2023-01-21T16:41:24.728Z,0.40
2023-01-21T16:43:56.575Z,0.40
2023-01-21T16:46:27.705Z,0.40
2023-01-21T16:48:58.454Z,0.40
2023-01-21T16:51:30.857Z,0.40
2023-01-21T16:54:23.355Z,0.40
2023-01-21T16:56:55.600Z,0.30
2023-01-21T16:59:27.728Z,0.40
2023-01-21T17:01:57.453Z,0.40
2023-01-21T17:04:26.033Z,0.40
2023-01-21T17:06:55.028Z,0.40
2023-01-21T17:09:28.769Z,0.40
2023-01-21T17:12:05.129Z,0.40
2023-01-21T17:14:35.493Z,0.40
2023-01-21T17:17:07.119Z,0.30
2023-01-21T17:19:38.093Z,0.40
2023-01-21T17:22:15.314Z,0.40
2023-01-21T17:24:56.840Z,0.40
2023-01-21T17:27:27.652Z,0.40
2023-01-21T17:30:29.846Z,0.40
2023-01-21T17:33:00.024Z,0.40
2023-01-21T17:35:29.717Z,0.40
2023-01-21T17:37:59.139Z,0.40
2023-01-21T17:40:32.679Z,0.30
2023-01-21T17:43:16.307Z,0.40
2023-01-21T17:45:46.877Z,0.40
2023-01-21T17:48:24.176Z,0.40
2023-01-21T17:50:53.894Z,0.40
2023-01-21T17:53:23.611Z,0.40
2023-01-21T17:56:01.688Z,0.40
2023-01-21T17:58:49.349Z,0.40
2023-01-21T18:01:19.825Z,0.50
2023-01-21T18:03:48.255Z,0.50
2023-01-21T18:06:20.240Z,0.40
2023-01-21T18:08:50.412Z,0.40
2023-01-21T18:11:19.415Z,0.40
2023-01-21T18:13:50.052Z,0.40
2023-01-21T18:16:18.607Z,0.40
2023-01-21T18:18:47.121Z,0.40
2023-01-21T18:21:20.252Z,0.50
2023-01-21T18:23:49.934Z,0.40
2023-01-21T18:26:27.030Z,0.40
2023-01-21T18:28:57.144Z,0.40
2023-01-21T18:31:25.682Z,0.40
2023-01-21T18:33:54.156Z,0.40
2023-01-21T18:36:22.590Z,0.40
2023-01-21T18:38:51.014Z,0.40
2023-01-21T18:41:19.837Z,0.40
2023-01-21T18:43:48.320Z,0.40
2023-01-21T18:46:19.769Z,0.40
2023-01-21T18:48:48.343Z,0.40
2023-01-21T18:51:16.967Z,0.40
2023-01-21T18:53:45.509Z,0.40
2023-01-21T18:56:15.241Z,0.40
2023-01-21T18:58:43.455Z,0.40
2023-01-21T19:01:22.691Z,0.40
2023-01-21T19:03:55.043Z,0.40
2023-01-21T19:06:24.928Z,0.40
2023-01-21T19:08:54.871Z,0.50
2023-01-21T19:11:23.608Z,0.50
2023-01-21T19:13:52.371Z,0.50
2023-01-21T19:16:21.903Z,0.50
2023-01-21T19:18:50.383Z,0.50
2023-01-21T19:21:20.252Z,0.50
2023-01-21T19:23:48.686Z,0.50
2023-01-21T19:26:17.707Z,0.50
2023-01-21T19:28:46.593Z,0.50
2023-01-21T19:31:15.048Z,0.50
2023-01-21T19:33:45.498Z,0.50
2023-01-21T19:36:16.590Z,0.50
2023-01-21T19:38:51.407Z,0.60
2023-01-21T19:41:20.035Z,0.50
2023-01-21T19:43:48.476Z,0.50
2023-01-21T19:46:17.058Z,0.50
2023-01-21T19:48:45.638Z,0.50
2023-01-21T19:51:14.250Z,0.50
2023-01-21T19:53:42.685Z,0.50
2023-01-21T19:56:17.028Z,0.50
2023-01-21T19:58:45.507Z,0.50
2023-01-21T20:01:14.004Z,0.50
2023-01-21T20:03:54.689Z,0.40
2023-01-21T20:06:30.676Z,0.50
2023-01-21T20:09:00.975Z,0.50
2023-01-21T20:11:31.193Z,0.50
2023-01-21T20:13:59.578Z,0.50
2023-01-21T20:16:28.448Z,0.50
2023-01-21T20:18:59.691Z,0.50
2023-01-21T20:21:28.846Z,0.40
2023-01-21T20:23:57.271Z,0.40
2023-01-21T20:26:28.537Z,0.40
2023-01-21T20:29:01.395Z,0.40
2023-01-21T20:31:30.274Z,0.40
2023-01-21T20:33:58.692Z,0.40
2023-01-21T20:36:28.225Z,0.40
2023-01-21T20:38:56.989Z,0.40
2023-01-21T20:41:25.403Z,0.50
2023-01-21T20:43:53.810Z,0.50
2023-01-21T20:46:26.884Z,0.50
2023-01-21T20:48:56.081Z,0.50
2023-01-21T20:51:24.720Z,0.40
2023-01-21T20:53:53.470Z,0.50
2023-01-21T20:56:26.384Z,0.50
2023-01-21T20:58:55.081Z,0.50
2023-01-21T21:01:26.727Z,0.40
2023-01-21T21:03:55.274Z,0.40
2023-01-21T21:06:26.139Z,0.40
2023-01-21T21:08:54.749Z,0.50
2023-01-21T21:11:23.269Z,0.40
2023-01-21T21:13:52.759Z,0.40
2023-01-21T21:16:24.881Z,0.40
2023-01-21T21:18:53.423Z,0.40
2023-01-21T21:21:23.844Z,0.40
2023-01-21T21:23:53.195Z,0.40
2023-01-21T21:26:23.913Z,0.40
2023-01-21T21:28:54.761Z,0.40
2023-01-21T21:31:26.511Z,0.40
2023-01-21T21:33:55.323Z,0.40
2023-01-21T21:36:24.951Z,0.40
2023-01-21T21:38:55.792Z,0.40
2023-01-21T21:41:45.776Z,0.50
2023-01-21T21:44:14.470Z,0.50
2023-01-21T21:47:02.021Z,0.40
2023-01-21T21:49:31.163Z,0.50
2023-01-21T21:52:01.049Z,0.40
2023-01-21T21:54:29.479Z,0.50
2023-01-21T21:56:58.289Z,0.40
2023-01-21T21:59:26.692Z,0.40
2023-01-21T22:01:56.840Z,0.40
2023-01-21T22:04:25.251Z,0.40
2023-01-21T22:06:53.713Z,0.40
2023-01-21T22:09:22.385Z,0.40
2023-01-21T22:11:50.807Z,0.40
2023-01-21T22:14:19.649Z,0.40
2023-01-21T22:16:51.247Z,0.40
2023-01-21T22:19:21.220Z,0.50
2023-01-21T22:21:49.638Z,0.40
2023-01-21T22:24:18.047Z,0.40
2023-01-21T22:26:46.776Z,0.40
2023-01-21T22:29:15.257Z,0.40
2023-01-21T22:31:43.876Z,0.40
2023-01-21T22:34:12.635Z,0.50
2023-01-21T22:36:46.992Z,0.40
2023-01-21T22:39:15.861Z,0.40
2023-01-21T22:41:44.427Z,0.40
2023-01-21T22:44:12.882Z,0.40
2023-01-21T22:46:41.259Z,0.40
2023-01-21T22:49:11.689Z,0.40
2023-01-21T22:51:40.074Z,0.40
2023-01-21T22:54:09.861Z,0.40
2023-01-21T22:56:51.479Z,0.40
2023-01-21T22:59:21.590Z,0.40
2023-01-21T23:01:51.133Z,0.40
2023-01-21T23:04:19.533Z,0.40
2023-01-21T23:06:48.605Z,0.40
2023-01-21T23:09:18.529Z,0.40
2023-01-21T23:11:47.019Z,0.40
2023-01-21T23:14:16.500Z,0.40
2023-01-21T23:16:44.969Z,0.40
2023-01-21T23:19:14.382Z,0.40
2023-01-21T23:21:42.883Z,0.40
2023-01-21T23:24:11.413Z,0.40
2023-01-21T23:26:41.263Z,0.50
2023-01-21T23:29:09.706Z,0.40
2023-01-21T23:31:38.461Z,0.40
2023-01-21T23:34:06.891Z,0.40
2023-01-21T23:36:35.306Z,0.40
2023-01-21T23:39:03.720Z,0.50
2023-01-21T23:41:32.175Z,0.40
2023-01-21T23:44:02.306Z,0.50
2023-01-21T23:46:31.032Z,0.40
2023-01-21T23:48:59.561Z,0.40
2023-01-21T23:51:28.062Z,0.40
2023-01-21T23:53:57.772Z,0.40
2023-01-21T23:56:27.350Z,0.40
2023-01-21T23:58:55.776Z,0.40
